createdAt,value
2018-11-05T00:03:36.057Z,14.25
2018-11-05T00:08:39.699Z,14.75
2018-11-05T00:13:43.206Z,16.50
2018-11-05T00:18:47.258Z,18.75
2018-11-05T00:23:50.517Z,18.50
2018-11-05T00:28:54.216Z,12.20
2018-11-05T00:33:58.045Z,14.25
2018-11-05T00:39:01.530Z,18.25
2018-11-05T00:44:05.272Z,14.60
2018-11-05T00:49:08.938Z,17.50
2018-11-05T00:54:12.451Z,18.50
2018-11-05T00:59:16.698Z,15.80
2018-11-05T01:04:20.388Z,14.25
2018-11-05T01:09:24.118Z,11.75
2018-11-05T01:14:27.661Z,18.50
2018-11-05T01:19:31.160Z,15.60
2018-11-05T01:24:35.182Z,15.00
2018-11-05T01:29:38.639Z,13.50
2018-11-05T01:34:42.574Z,15.40
2018-11-05T01:39:46.058Z,14.80
2018-11-05T01:44:49.649Z,13.75
2018-11-05T01:49:53.177Z,14.80
2018-11-05T01:54:56.945Z,16.25
2018-11-05T02:00:01.484Z,13.50
2018-11-05T02:05:07.939Z,13.60
2018-11-05T02:10:16.912Z,14.20
2018-11-05T02:15:20.397Z,13.00
2018-11-05T02:20:23.975Z,15.40
2018-11-05T02:25:27.433Z,14.75
2018-11-05T02:30:30.926Z,14.75
2018-11-05T02:35:34.389Z,14.25
2018-11-05T02:40:37.859Z,12.00
2018-11-05T02:45:41.329Z,13.75
2018-11-05T02:50:44.787Z,15.00
2018-11-05T02:55:48.251Z,10.50
2018-11-05T03:00:51.729Z,15.75
2018-11-05T03:05:55.200Z,11.75
2018-11-05T03:10:58.650Z,11.50
2018-11-05T03:16:02.114Z,15.20
2018-11-05T03:21:06.397Z,10.75
2018-11-05T03:26:09.870Z,13.60
2018-11-05T03:31:13.322Z,11.25
2018-11-05T03:36:16.810Z,9.40
2018-11-05T03:41:20.308Z,11.75
2018-11-05T03:46:23.774Z,13.20
2018-11-05T03:51:27.245Z,14.50
2018-11-05T03:56:30.759Z,11.00
2018-11-05T04:01:34.222Z,13.50
2018-11-05T04:06:37.751Z,9.80
2018-11-05T04:11:41.220Z,9.50
2018-11-05T04:16:44.725Z,12.50
2018-11-05T04:21:48.195Z,11.50
2018-11-05T04:26:51.658Z,9.25
2018-11-05T04:31:55.219Z,12.80
2018-11-05T04:36:58.699Z,13.00
2018-11-05T04:42:02.178Z,11.25
2018-11-05T04:47:05.744Z,14.75
2018-11-05T04:52:09.275Z,12.75
2018-11-05T04:57:12.766Z,12.00
2018-11-05T05:02:16.236Z,13.75
2018-11-05T05:07:19.717Z,14.20
2018-11-05T05:12:23.209Z,15.00
2018-11-05T05:17:26.648Z,14.00
2018-11-05T05:22:30.269Z,18.75
2018-11-05T05:27:33.554Z,13.00
2018-11-05T05:32:37.019Z,16.00
2018-11-05T05:37:40.935Z,15.00
2018-11-05T05:42:44.422Z,16.75
2018-11-05T05:47:47.878Z,16.40
2018-11-05T05:52:51.333Z,15.00
2018-11-05T05:57:54.782Z,13.40
2018-11-05T06:02:58.246Z,15.25
2018-11-05T06:08:01.674Z,16.20
2018-11-05T06:13:05.301Z,15.25
2018-11-05T06:18:08.747Z,14.20
2018-11-05T06:23:12.224Z,13.50
2018-11-05T06:28:15.688Z,14.40
2018-11-05T06:33:19.147Z,14.20
2018-11-05T06:38:22.634Z,13.75
2018-11-05T06:43:26.087Z,14.80
2018-11-05T06:48:29.534Z,14.75
2018-11-05T06:53:33.047Z,17.00
2018-11-05T06:58:36.505Z,15.00
2018-11-05T07:03:39.943Z,13.00
2018-11-05T07:08:43.387Z,16.50
2018-11-05T07:13:46.815Z,18.25
2018-11-05T07:18:50.471Z,16.25
2018-11-05T07:23:53.702Z,17.00
2018-11-05T07:28:57.303Z,10.40
2018-11-05T07:34:00.866Z,14.40
2018-11-05T07:39:06.047Z,18.40
2018-11-05T07:44:09.926Z,45.50
2018-11-05T07:49:13.375Z,49.25
2018-11-05T07:54:16.879Z,48.80
2018-11-05T07:59:20.322Z,47.25
2018-11-05T08:04:23.822Z,49.40
2018-11-05T08:09:27.281Z,51.00
2018-11-05T08:14:30.750Z,47.75
2018-11-05T08:19:34.217Z,47.20
2018-11-05T08:24:37.691Z,45.75
2018-11-05T08:29:41.141Z,41.20
2018-11-05T08:34:44.591Z,43.00
2018-11-05T08:39:48.073Z,43.40
2018-11-05T08:44:51.580Z,47.75
2018-11-05T08:49:55.079Z,48.00
2018-11-05T08:54:58.552Z,42.75
2018-11-05T09:00:02.065Z,43.00
2018-11-05T09:05:06.310Z,40.20
2018-11-05T09:10:09.800Z,36.80
2018-11-05T09:15:14.536Z,49.75
2018-11-05T09:20:19.739Z,52.60
2018-11-05T09:25:23.203Z,50.60
2018-11-05T09:30:26.748Z,53.80
2018-11-05T09:35:30.190Z,50.75
2018-11-05T09:40:33.652Z,47.75
2018-11-05T09:45:37.262Z,48.00
2018-11-05T09:50:40.746Z,53.40
2018-11-05T09:55:44.212Z,50.50
2018-11-05T10:00:47.701Z,49.20
2018-11-05T10:05:51.171Z,51.50
2018-11-05T10:10:54.627Z,47.60
2018-11-05T10:15:58.100Z,42.25
2018-11-05T10:21:01.581Z,46.60
2018-11-05T10:26:05.264Z,45.40
2018-11-05T10:31:08.719Z,45.60
2018-11-05T10:36:12.163Z,43.00
2018-11-05T10:41:15.936Z,43.00
2018-11-05T10:46:19.449Z,46.00
2018-11-05T10:51:23.040Z,44.80
2018-11-05T10:56:26.400Z,43.50
2018-11-05T11:01:35.186Z,45.75
2018-11-05T11:06:38.623Z,41.75
2018-11-05T11:11:42.071Z,42.20
2018-11-05T11:16:45.583Z,41.40
2018-11-05T11:21:49.069Z,41.40
2018-11-05T11:26:52.511Z,40.50
2018-11-05T11:31:55.962Z,44.40
2018-11-05T11:36:59.468Z,40.50
2018-11-05T11:42:02.978Z,41.50
2018-11-05T11:47:06.393Z,40.25
2018-11-05T11:52:09.869Z,37.00
2018-11-05T11:57:13.298Z,41.25
2018-11-05T12:02:17.893Z,42.00
2018-11-05T12:07:21.329Z,42.25
2018-11-05T12:12:24.831Z,41.20
2018-11-05T12:17:28.273Z,36.00
2018-11-05T12:22:31.728Z,40.75
2018-11-05T12:27:35.274Z,45.00
2018-11-05T12:32:38.707Z,42.40
2018-11-05T12:37:44.279Z,40.50
2018-11-05T12:42:48.934Z,40.60
2018-11-05T12:47:52.377Z,42.00
2018-11-05T12:52:56.275Z,42.40
2018-11-05T12:57:59.744Z,40.40
2018-11-05T13:03:03.219Z,41.00
2018-11-05T13:08:06.684Z,35.00
2018-11-05T13:13:10.137Z,37.20
2018-11-05T13:18:13.639Z,40.00
2018-11-05T13:23:21.221Z,37.60
2018-11-05T13:28:24.694Z,30.00
2018-11-05T13:33:28.221Z,36.00
2018-11-05T13:38:31.738Z,36.00
2018-11-05T13:43:35.187Z,35.00
2018-11-05T13:48:39.162Z,38.75
2018-11-05T13:53:42.187Z,33.20
2018-11-05T13:58:45.684Z,38.20
2018-11-05T14:03:49.124Z,40.00
2018-11-05T14:08:52.744Z,34.00
2018-11-05T14:13:56.228Z,32.00
2018-11-05T14:18:59.691Z,30.75
2018-11-05T14:24:03.141Z,32.75
2018-11-05T14:29:06.913Z,31.75
2018-11-05T14:34:10.334Z,34.00
2018-11-05T14:39:14.936Z,34.20
2018-11-05T14:44:18.419Z,36.75
2018-11-05T14:49:21.847Z,35.80
2018-11-05T14:54:25.275Z,35.75
2018-11-05T14:59:28.714Z,35.75
2018-11-05T15:04:33.583Z,39.00
2018-11-05T15:09:37.038Z,39.60
2018-11-05T15:14:40.587Z,33.50
2018-11-05T15:19:44.539Z,35.60
2018-11-05T15:24:47.484Z,38.00
2018-11-05T15:29:50.981Z,38.20
2018-11-05T15:34:54.470Z,35.00
2018-11-05T15:39:57.902Z,41.60
2018-11-05T15:45:01.372Z,46.25
2018-11-05T15:50:07.290Z,34.25
2018-11-05T15:55:13.219Z,40.40
2018-11-05T16:00:19.056Z,37.40
2018-11-05T16:05:22.533Z,34.40
2018-11-05T16:10:27.440Z,33.25
2018-11-05T16:15:30.902Z,33.00
2018-11-05T16:20:34.356Z,35.50
2018-11-05T16:25:41.594Z,33.40
2018-11-05T16:30:46.483Z,38.75
2018-11-05T16:35:51.636Z,39.00
2018-11-05T16:40:57.698Z,35.00
2018-11-05T16:46:01.743Z,33.75
2018-11-05T16:51:05.814Z,36.50
2018-11-05T16:56:10.368Z,32.50
2018-11-05T17:01:14.761Z,37.00
2018-11-05T17:06:20.418Z,37.40
2018-11-05T17:11:23.906Z,32.80
2018-11-05T17:16:27.556Z,39.40
2018-11-05T17:21:31.063Z,33.60
2018-11-05T17:26:34.530Z,35.50
2018-11-05T17:31:38.018Z,36.80
2018-11-05T17:36:41.499Z,37.20
2018-11-05T17:41:45.009Z,34.75
2018-11-05T17:46:48.537Z,37.00
2018-11-05T17:51:52.038Z,37.60
2018-11-05T17:56:55.575Z,38.00
2018-11-05T18:01:59.076Z,35.80
2018-11-05T18:07:02.591Z,38.25
2018-11-05T18:12:06.129Z,30.60
2018-11-05T18:17:09.731Z,36.00
2018-11-05T18:22:13.256Z,31.00
2018-11-05T18:27:16.761Z,33.80
2018-11-05T18:32:21.228Z,33.00
2018-11-05T18:37:24.888Z,33.00
2018-11-05T18:42:28.430Z,30.75
2018-11-05T18:47:32.033Z,36.60
2018-11-05T18:52:35.674Z,36.25
2018-11-05T18:57:39.674Z,33.80
2018-11-05T19:02:43.267Z,29.00
2018-11-05T19:07:47.263Z,37.80
2018-11-05T19:12:51.751Z,38.75
2018-11-05T19:17:55.285Z,36.75
2018-11-05T19:22:58.996Z,36.25
2018-11-05T19:28:02.270Z,36.20
2018-11-05T19:33:06.470Z,34.75
2018-11-05T19:38:09.969Z,37.00
2018-11-05T19:43:13.524Z,30.00
2018-11-05T19:48:17.043Z,33.60
2018-11-05T19:53:20.642Z,31.50
2018-11-05T19:58:24.274Z,33.40
2018-11-05T20:03:27.806Z,33.75
2018-11-05T20:08:31.263Z,33.50
2018-11-05T20:13:34.900Z,31.20
2018-11-05T20:18:38.427Z,32.25
2018-11-05T20:23:42.158Z,34.80
2018-11-05T20:28:45.878Z,34.75
2018-11-05T20:33:49.381Z,41.75
2018-11-05T20:38:52.857Z,40.00
2018-11-05T20:43:56.374Z,37.50
2018-11-05T20:48:59.933Z,37.25
2018-11-05T20:54:03.518Z,36.75
2018-11-05T20:59:07.239Z,32.80
2018-11-05T21:04:10.868Z,39.00
2018-11-05T21:09:14.324Z,30.80
2018-11-05T21:14:17.913Z,34.00
2018-11-05T21:19:21.390Z,35.20
2018-11-05T21:24:25.558Z,32.40
2018-11-05T21:29:29.010Z,27.80
2018-11-05T21:34:32.483Z,35.50
2018-11-05T21:39:35.959Z,33.60
2018-11-05T21:44:39.466Z,36.00
2018-11-05T21:49:42.941Z,33.80
2018-11-05T21:54:46.423Z,28.75
2018-11-05T21:59:49.899Z,29.00
2018-11-05T22:04:53.372Z,28.50
2018-11-05T22:09:56.837Z,33.40
2018-11-05T22:15:00.326Z,30.25
2018-11-05T22:20:04.450Z,32.00
2018-11-05T22:25:08.099Z,31.00
2018-11-05T22:30:12.119Z,28.20
2018-11-05T22:35:15.599Z,27.60
2018-11-05T22:40:19.076Z,27.60
2018-11-05T22:45:22.570Z,25.00
2018-11-05T22:50:26.047Z,27.25
2018-11-05T22:55:29.556Z,26.00
2018-11-05T23:00:38.346Z,27.00
2018-11-05T23:05:41.879Z,25.40
2018-11-05T23:10:45.409Z,27.50
2018-11-05T23:15:48.925Z,26.75
2018-11-05T23:20:52.425Z,27.75
2018-11-05T23:25:55.897Z,23.50
2018-11-05T23:30:59.378Z,26.25
2018-11-05T23:36:02.896Z,28.00
2018-11-05T23:41:06.388Z,25.00
2018-11-05T23:46:09.876Z,24.40
2018-11-05T23:51:13.383Z,24.25
2018-11-05T23:56:16.872Z,24.20
